METAR rapporten vliegvelden

   
EHVK - Volkel Rnlafb, Netherlands
Afstand tot: ZW 18 km
Gewijzigd: 08-04-2020 07:31
Licht bewolkt  
Licht bewolkt  
   Wind: ONO 5.6 km/h
Wind: ONO 5.6 km/h
Temperatuur: 8°C
Voelt als: 7°C
Dauwpunt: 6°C
Vochtigheid: 87%
Barometer: 1025 hPa
Bewolking: Licht bewolkt
Zicht: meer dan 10 km
Bewolking: Licht bewolkt 37000 ft
EHVK 080531Z AUTO 06003KT 9999 FEW370 08/06 Q1025 BLU 06004KT CAVOK
EDLV - Niederrhein, Germany
Afstand tot: ZO 25 km
Gewijzigd: 03-04-2020 15:20
Verouderd
Helder  
Helder  
   Wind: WNW 20.4 km/h
Wind: WNW 20.4 km/h
Temperatuur: 10°C
Voelt als: 7°C
Dauwpunt: 2°C
Vochtigheid: 58%
Barometer: 1016 hPa
Zicht: meer dan 10 km
Bewolking: Helder
EDLV 031320Z 30011KT 280V340 CAVOK 10/02 Q1016
EHDL - Deelen Rnlafb, Netherlands
Afstand tot: N 35 km
Gewijzigd: 08-04-2020 07:25
Bewolking  
Bewolking  
   Wind: OZO 7.4 km/h
Wind: OZO 7.4 km/h
Temperatuur: 6°C
Voelt als: 4°C
Dauwpunt: 5°C
Vochtigheid: 93%
Barometer: 1025 hPa
Bewolking: Bewolking
Zicht: meer dan 10 km
Bewolking: Grotendeels bewolkt 29000 ft,
Bewolking 34000 ft
EHDL 080525Z AUTO 11004KT 9999 BKN290 OVC340 06/05 Q1025 BLU
EHEH - Eindhoven Rnlafb, Netherlands
Afstand tot: ZW 48 km
Gewijzigd: 08-04-2020 07:35
Nevel, Bewolking  
Nevel, Bewolking  
   Wind: NNO 3.7 km/h
Wind: NNO 3.7 km/h
Temperatuur: 7°C
Dauwpunt: 5°C
Vochtigheid: 87%
Barometer: 1025 hPa
Bewolking: Bewolking
Zicht: 9 km
Bewolking: Bewolking 8200 ft
EHEH 080535Z AUTO 03002KT 9000 BR OVC082 07/05 Q1025 BLU 04003KT CAVOK
EHGR - Gilze-Rijen Rnla, Netherlands
Afstand tot: WZW 70 km
Gewijzigd: 08-04-2020 07:25
Bewolking  
Bewolking  
   Wind: ONO 3.7 km/h
Wind: ONO 3.7 km/h
Temperatuur: 7°C
Dauwpunt: 6°C
Vochtigheid: 93%
Barometer: 1025 hPa
Bewolking: Bewolking
Zicht: meer dan 10 km
Bewolking: Bewolking 9000 ft
EHGR 080525Z AUTO 06002KT 9999 OVC090 07/06 Q1025 BLU
EBBL - Kleine-Brogel(Ba, Belgium
Afstand tot: ZZW 71 km
Gewijzigd: 08-04-2020 07:33
Nevel, Grotendeels bewolkt  
Nevel, Grotendeels bewolkt  
   Wind: varieert 1.9 km/h
Wind: varieert 1.9 km/h
Temperatuur: 7°C
Dauwpunt: 6°C
Vochtigheid: 93%
Barometer: 1025 hPa
Bewolking: Grotendeels bewolkt
Zicht: 3 km
Bewolking: Grotendeels bewolkt 8400 ft
EBBL 080533Z AUTO VRB01KT 3100 BR BKN084/// 07/06 Q1025 YLO

Script ontwikkeld door  Saratoga-weather.org Aangepast voor de template door  Weerstation Leuven

U vindt ons ook hier:

Het Weer Aktueel

European Weather Network

WeatherCloud

Weather Underground

Benelux Weer Netwerk

Apparatuur in gebruik:

Weerstation
Davis VP2

Weerprogramma
consoleWD

Weercomputer
Raspberry

Webleverancier
Stef van Bakel koeltechniek

Davis VP2

consoleWD

Raspberry

Stef van Bakel koeltechniek